createdAt,value
2023-04-10T00:00:02.254Z,10.36
2023-04-10T00:02:32.766Z,10.31
2023-04-10T00:05:00.906Z,10.26
2023-04-10T00:07:27.758Z,10.22
2023-04-10T00:09:54.445Z,10.16
2023-04-10T00:12:21.496Z,10.12
2023-04-10T00:14:48.163Z,10.07
2023-04-10T00:17:14.849Z,10.01
2023-04-10T00:19:41.602Z,9.95
2023-04-10T00:22:08.315Z,9.91
2023-04-10T00:24:35.018Z,9.90
2023-04-10T00:27:01.732Z,9.89
2023-04-10T00:29:28.569Z,9.87
2023-04-10T00:31:55.436Z,9.86
2023-04-10T00:34:22.187Z,9.83
2023-04-10T00:36:48.828Z,9.80
2023-04-10T00:39:15.574Z,9.75
2023-04-10T00:41:42.537Z,9.73
2023-04-10T00:44:09.380Z,9.69
2023-04-10T00:46:39.218Z,9.66
2023-04-10T00:49:06.508Z,9.64
2023-04-10T00:51:33.681Z,9.61
2023-04-10T00:54:02.408Z,9.61
2023-04-10T00:56:33.999Z,9.58
2023-04-10T00:59:00.764Z,9.58
2023-04-10T01:01:27.471Z,9.55
2023-04-10T01:03:55.112Z,9.53
2023-04-10T01:06:38.756Z,9.52
2023-04-10T01:09:14.649Z,9.51
2023-04-10T01:11:56.100Z,9.49
2023-04-10T01:14:34.625Z,9.50
2023-04-10T01:17:09.632Z,9.49
2023-04-10T01:19:52.066Z,9.46
2023-04-10T01:22:21.162Z,9.47
2023-04-10T01:25:12.617Z,9.43
2023-04-10T01:28:05.041Z,9.42
2023-04-10T01:30:35.563Z,9.39
2023-04-10T01:33:04.292Z,9.37
2023-04-10T01:35:33.411Z,9.38
2023-04-10T01:38:04.195Z,9.38
2023-04-10T01:40:32.870Z,9.40
2023-04-10T01:43:01.907Z,9.41
2023-04-10T01:45:29.232Z,9.45
2023-04-10T01:47:56.948Z,9.51
2023-04-10T01:50:24.589Z,9.51
2023-04-10T01:52:56.295Z,9.54
2023-04-10T01:55:24.230Z,9.56
2023-04-10T01:57:51.920Z,9.57
2023-04-10T02:00:19.021Z,9.57
2023-04-10T02:02:46.007Z,9.60
2023-04-10T02:05:12.879Z,9.58
2023-04-10T02:07:42.572Z,9.57
2023-04-10T02:10:12.162Z,9.58
2023-04-10T02:13:05.389Z,9.58
2023-04-10T02:15:34.464Z,9.58
2023-04-10T02:18:04.969Z,9.58
2023-04-10T02:20:32.489Z,9.55
2023-04-10T02:23:03.752Z,9.54
2023-04-10T02:25:35.153Z,9.51
2023-04-10T02:28:08.841Z,9.51
2023-04-10T02:30:35.942Z,9.51
2023-04-10T02:33:02.685Z,9.50
2023-04-10T02:35:29.387Z,9.48
2023-04-10T02:37:56.324Z,9.46
2023-04-10T02:40:23.425Z,9.48
2023-04-10T02:42:50.067Z,9.46
2023-04-10T02:45:16.841Z,9.46
2023-04-10T02:47:43.995Z,9.46
2023-04-10T02:50:11.471Z,9.47
2023-04-10T02:52:38.200Z,9.46
2023-04-10T02:55:05.773Z,9.49
2023-04-10T02:57:35.009Z,9.50
2023-04-10T03:00:02.724Z,9.50
2023-04-10T03:02:32.118Z,9.51
2023-04-10T03:05:00.597Z,9.51
2023-04-10T03:07:27.318Z,9.50
2023-04-10T03:09:53.959Z,9.50
2023-04-10T03:12:20.641Z,9.53
2023-04-10T03:14:47.263Z,9.56
2023-04-10T03:17:13.988Z,9.56
2023-04-10T03:19:40.616Z,9.57
2023-04-10T03:22:07.561Z,9.57
2023-04-10T03:24:34.228Z,9.56
2023-04-10T03:27:01.579Z,9.55
2023-04-10T03:29:28.228Z,9.56
2023-04-10T03:31:54.911Z,9.54
2023-04-10T03:34:21.598Z,9.53
2023-04-10T03:36:48.515Z,9.51
2023-04-10T03:39:15.471Z,9.48
2023-04-10T03:41:42.081Z,9.43
2023-04-10T03:44:08.730Z,9.37
2023-04-10T03:46:35.421Z,9.34
2023-04-10T03:49:02.156Z,9.34
2023-04-10T03:51:28.814Z,9.33
2023-04-10T03:53:56.077Z,9.35
2023-04-10T03:56:22.910Z,9.33
2023-04-10T03:58:49.530Z,9.33
2023-04-10T04:01:16.311Z,9.33
2023-04-10T04:03:43.350Z,9.32
2023-04-10T04:06:10.169Z,9.30
2023-04-10T04:08:38.749Z,9.25
2023-04-10T04:11:06.198Z,9.21
2023-04-10T04:13:32.829Z,9.14
2023-04-10T04:15:59.568Z,9.08
2023-04-10T04:18:26.195Z,9.03
2023-04-10T04:20:52.862Z,8.98
2023-04-10T04:23:19.518Z,8.94
2023-04-10T04:25:46.318Z,8.90
2023-04-10T04:28:13.774Z,8.87
2023-04-10T04:30:40.384Z,8.83
2023-04-10T04:33:07.167Z,8.79
2023-04-10T04:35:33.911Z,8.75
2023-04-10T04:38:00.687Z,8.72
2023-04-10T04:40:27.309Z,8.70
2023-04-10T04:42:53.968Z,8.67
2023-04-10T04:45:21.924Z,8.61
2023-04-10T04:47:48.645Z,8.55
2023-04-10T04:50:15.571Z,8.51
2023-04-10T04:52:42.885Z,8.50
2023-04-10T04:55:10.115Z,8.46
2023-04-10T04:57:37.225Z,8.44
2023-04-10T05:00:04.252Z,8.41
2023-04-10T05:02:31.158Z,8.39
2023-04-10T05:04:58.040Z,8.39
2023-04-10T05:07:24.603Z,8.36
2023-04-10T05:09:51.765Z,8.36
2023-04-10T05:12:18.478Z,8.34
2023-04-10T05:14:45.993Z,8.35
2023-04-10T05:17:12.681Z,8.36
2023-04-10T05:19:39.324Z,8.38
2023-04-10T05:22:06.276Z,8.37
2023-04-10T05:24:33.028Z,8.37
2023-04-10T05:26:59.664Z,8.37
2023-04-10T05:29:26.500Z,8.37
2023-04-10T05:31:53.510Z,8.35
2023-04-10T05:34:21.140Z,8.34
2023-04-10T05:36:47.776Z,8.34
2023-04-10T05:39:15.793Z,8.36
2023-04-10T05:41:42.771Z,8.37
2023-04-10T05:44:09.405Z,8.40
2023-04-10T05:46:36.214Z,8.40
2023-04-10T05:49:03.802Z,8.40
2023-04-10T05:51:30.960Z,8.40
2023-04-10T05:53:57.609Z,8.44
2023-04-10T05:56:24.309Z,8.45
2023-04-10T05:58:50.970Z,8.47
2023-04-10T06:01:17.561Z,8.47
2023-04-10T06:03:44.379Z,8.50
2023-04-10T06:06:11.112Z,8.53
2023-04-10T06:08:37.723Z,8.54
2023-04-10T06:11:04.541Z,8.54
2023-04-10T06:13:32.499Z,8.58
2023-04-10T06:15:59.185Z,8.63
2023-04-10T06:18:25.964Z,8.68
2023-04-10T06:20:52.567Z,8.71
2023-04-10T06:23:19.459Z,8.74
2023-04-10T06:25:47.686Z,8.76
2023-04-10T06:28:14.725Z,8.79
2023-04-10T06:30:41.469Z,8.82
2023-04-10T06:33:08.070Z,8.85
2023-04-10T06:35:36.656Z,8.88
2023-04-10T06:38:04.424Z,8.89
2023-04-10T06:40:31.742Z,8.91
2023-04-10T06:42:58.327Z,8.90
2023-04-10T06:45:25.033Z,8.90
2023-04-10T06:47:51.929Z,8.91
2023-04-10T06:50:18.588Z,8.92
2023-04-10T06:52:46.310Z,8.94
2023-04-10T06:55:13.108Z,8.93
2023-04-10T06:57:40.693Z,8.94
2023-04-10T07:00:08.137Z,8.94
2023-04-10T07:02:34.981Z,8.94
2023-04-10T07:05:01.701Z,8.91
2023-04-10T07:07:29.314Z,8.88
2023-04-10T07:09:57.953Z,8.86
2023-04-10T07:12:24.702Z,8.82
2023-04-10T07:14:51.418Z,8.80
2023-04-10T07:17:18.096Z,8.76
2023-04-10T07:19:44.830Z,8.74
2023-04-10T07:22:11.714Z,8.71
2023-04-10T07:24:38.393Z,8.64
2023-04-10T07:27:05.095Z,8.61
2023-04-10T07:29:31.899Z,8.58
2023-04-10T07:31:58.802Z,8.54
2023-04-10T07:34:26.029Z,8.53
2023-04-10T07:36:52.795Z,8.50
2023-04-10T07:39:19.578Z,8.43
2023-04-10T07:41:46.316Z,8.38
2023-04-10T07:44:13.289Z,8.33
2023-04-10T07:46:40.298Z,8.29
2023-04-10T07:49:08.576Z,8.26
2023-04-10T07:51:35.663Z,8.24
2023-04-10T07:54:04.085Z,8.23
2023-04-10T07:56:33.595Z,8.22
2023-04-10T07:59:03.271Z,8.20
2023-04-10T08:01:29.923Z,8.15
2023-04-10T08:03:56.852Z,8.14
2023-04-10T08:06:23.693Z,8.14
2023-04-10T08:08:52.510Z,8.14
2023-04-10T08:11:27.673Z,8.13
2023-04-10T08:13:56.758Z,8.13
2023-04-10T08:16:27.686Z,8.12
2023-04-10T08:18:55.651Z,8.13
2023-04-10T08:21:23.925Z,8.15
2023-04-10T08:23:55.527Z,8.13
2023-04-10T08:26:22.474Z,8.15
2023-04-10T08:28:51.065Z,8.19
2023-04-10T08:31:19.513Z,8.22
2023-04-10T08:33:46.495Z,8.25
2023-04-10T08:36:17.540Z,8.31
2023-04-10T08:38:46.844Z,8.37
2023-04-10T08:41:18.823Z,8.44
2023-04-10T08:43:46.430Z,8.45
2023-04-10T08:46:16.515Z,8.46
2023-04-10T08:48:53.332Z,8.47
2023-04-10T08:51:26.261Z,8.53
2023-04-10T08:53:59.625Z,8.55
2023-04-10T08:56:26.930Z,8.59
2023-04-10T08:58:53.623Z,8.64
2023-04-10T09:01:21.703Z,8.71
2023-04-10T09:03:48.850Z,8.76
2023-04-10T09:06:15.773Z,8.74
2023-04-10T09:08:42.491Z,8.75
2023-04-10T09:11:09.283Z,8.72
2023-04-10T09:13:44.083Z,8.85
2023-04-10T09:16:12.129Z,9.05
2023-04-10T09:18:48.719Z,9.39
2023-04-10T09:21:17.376Z,10.26
2023-04-10T09:23:45.882Z,10.95
2023-04-10T09:26:29.793Z,11.66
2023-04-10T09:29:06.905Z,11.75
2023-04-10T09:31:35.973Z,11.69
2023-04-10T09:34:10.192Z,11.80
2023-04-10T09:36:37.750Z,12.36
2023-04-10T09:39:05.407Z,13.05
2023-04-10T09:41:32.182Z,13.06
2023-04-10T09:44:10.688Z,12.79
2023-04-10T09:46:37.664Z,13.27
2023-04-10T09:49:07.750Z,13.64
2023-04-10T09:51:35.903Z,13.31
2023-04-10T09:54:03.708Z,13.09
2023-04-10T09:56:31.304Z,12.70
2023-04-10T09:58:59.989Z,12.91
2023-04-10T10:01:34.632Z,13.97
2023-04-10T10:04:05.089Z,14.57
2023-04-10T10:06:32.920Z,14.73
2023-04-10T10:09:04.707Z,14.27
2023-04-10T10:11:35.053Z,14.80
2023-04-10T10:14:13.259Z,14.92
2023-04-10T10:16:47.047Z,14.14
2023-04-10T10:19:22.199Z,13.34
2023-04-10T10:21:49.177Z,12.72
2023-04-10T10:24:17.356Z,12.21
2023-04-10T10:26:45.140Z,11.92
2023-04-10T10:29:15.025Z,11.96
2023-04-10T10:31:42.970Z,11.94
2023-04-10T10:34:09.951Z,11.75
2023-04-10T10:36:37.328Z,11.81
2023-04-10T10:39:45.461Z,12.10
2023-04-10T10:42:41.482Z,12.56
2023-04-10T10:45:18.749Z,13.74
2023-04-10T10:47:49.438Z,13.82
2023-04-10T10:50:16.580Z,13.19
2023-04-10T10:52:44.941Z,12.76
2023-04-10T10:55:36.759Z,13.32
2023-04-10T10:58:11.540Z,13.21
2023-04-10T11:00:50.503Z,12.68
2023-04-10T11:03:17.489Z,12.26
2023-04-10T11:06:04.403Z,11.93
2023-04-10T11:08:37.611Z,11.98
2023-04-10T11:11:06.057Z,12.13
2023-04-10T11:13:37.173Z,12.13
2023-04-10T11:16:05.758Z,12.25
2023-04-10T11:18:44.675Z,12.37
2023-04-10T11:21:12.911Z,12.34
2023-04-10T11:23:59.568Z,12.30
2023-04-10T11:26:44.345Z,12.27
2023-04-10T11:29:19.880Z,12.21
2023-04-10T11:31:48.497Z,12.15
2023-04-10T11:34:15.884Z,12.33
2023-04-10T11:36:43.942Z,12.38
2023-04-10T11:39:17.811Z,12.26
2023-04-10T11:41:52.987Z,11.97
2023-04-10T11:44:29.374Z,11.46
2023-04-10T11:46:58.064Z,10.98
2023-04-10T11:49:31.369Z,10.72
2023-04-10T11:51:58.155Z,10.61
2023-04-10T11:54:26.930Z,10.56
2023-04-10T11:56:58.300Z,10.53
2023-04-10T11:59:25.905Z,10.44
2023-04-10T12:01:54.409Z,10.40
2023-04-10T12:04:23.076Z,10.38
2023-04-10T12:06:56.902Z,10.34
2023-04-10T12:09:23.768Z,10.40
2023-04-10T12:11:51.600Z,10.46
2023-04-10T12:14:23.719Z,10.53
2023-04-10T12:16:51.524Z,10.57
2023-04-10T12:19:19.296Z,10.52
2023-04-10T12:21:46.529Z,10.47
2023-04-10T12:24:13.412Z,10.40
2023-04-10T12:26:49.052Z,10.46
2023-04-10T12:29:15.966Z,10.56
2023-04-10T12:34:11.393Z,10.67
2023-04-10T12:36:38.226Z,10.68
2023-04-10T12:39:06.176Z,10.71
2023-04-10T12:41:34.416Z,10.76
2023-04-10T12:44:14.032Z,10.84
2023-04-10T12:46:42.443Z,10.91
2023-04-10T12:49:17.182Z,11.07
2023-04-10T12:51:46.708Z,11.22
2023-04-10T12:54:31.941Z,11.37
2023-04-10T12:56:59.265Z,11.46
2023-04-10T12:59:29.185Z,11.59
2023-04-10T13:01:56.222Z,11.72
2023-04-10T13:04:23.765Z,11.77
2023-04-10T13:06:53.716Z,11.86
2023-04-10T13:09:21.148Z,11.86
2023-04-10T13:11:49.102Z,11.87
2023-04-10T13:14:17.923Z,11.95
2023-04-10T13:16:44.653Z,12.07
2023-04-10T13:19:11.391Z,12.18
2023-04-10T13:21:38.022Z,12.39
2023-04-10T13:24:04.829Z,12.70
2023-04-10T13:26:31.641Z,12.75
2023-04-10T13:28:58.273Z,12.76
2023-04-10T13:31:24.988Z,12.83
2023-04-10T13:33:52.691Z,12.64
2023-04-10T13:36:19.433Z,12.11
2023-04-10T13:38:46.248Z,11.46
2023-04-10T13:41:13.012Z,11.10
2023-04-10T13:43:39.874Z,10.98
2023-04-10T13:46:06.787Z,11.28
2023-04-10T13:48:40.718Z,11.82
2023-04-10T13:51:08.491Z,12.24
2023-04-10T13:53:35.663Z,12.26
2023-04-10T13:56:02.538Z,12.08
2023-04-10T13:58:32.026Z,12.04
2023-04-10T14:00:59.073Z,12.14
2023-04-10T14:03:26.020Z,12.48
2023-04-10T14:05:54.429Z,12.81
2023-04-10T14:08:21.094Z,13.05
2023-04-10T14:10:51.562Z,13.14
2023-04-10T14:13:18.777Z,12.99
2023-04-10T14:15:45.747Z,12.66
2023-04-10T14:18:12.624Z,12.13
2023-04-10T14:20:42.324Z,11.47
2023-04-10T14:23:09.578Z,10.87
2023-04-10T14:25:36.257Z,10.58
2023-04-10T14:28:03.153Z,10.37
2023-04-10T14:30:31.047Z,10.33
2023-04-10T14:32:57.953Z,10.53
2023-04-10T14:35:25.848Z,11.01
2023-04-10T14:37:52.542Z,11.41
2023-04-10T14:40:19.207Z,11.81
2023-04-10T14:42:46.383Z,12.20
2023-04-10T14:45:13.043Z,12.56
2023-04-10T14:47:39.756Z,12.71
2023-04-10T14:50:07.209Z,12.93
2023-04-10T14:52:33.841Z,12.92
2023-04-10T14:55:00.786Z,12.96
2023-04-10T14:57:29.723Z,12.94
2023-04-10T14:59:56.674Z,13.00
2023-04-10T15:02:23.981Z,13.19
2023-04-10T15:04:50.880Z,13.00
2023-04-10T15:07:17.581Z,12.81
2023-04-10T15:09:44.659Z,12.38
2023-04-10T15:12:11.301Z,12.02
2023-04-10T15:14:38.005Z,11.80
2023-04-10T15:17:04.782Z,11.80
2023-04-10T15:19:31.593Z,11.91
2023-04-10T15:21:58.434Z,12.33
2023-04-10T15:24:25.252Z,12.89
2023-04-10T15:26:53.563Z,13.31
2023-04-10T15:29:20.289Z,13.61
2023-04-10T15:31:46.916Z,13.60
2023-04-10T15:34:13.704Z,13.71
2023-04-10T15:36:41.205Z,13.39
2023-04-10T15:39:08.694Z,13.17
2023-04-10T15:41:35.495Z,12.84
2023-04-10T15:44:03.281Z,12.57
2023-04-10T15:46:32.847Z,12.46
2023-04-10T15:49:00.759Z,12.51
2023-04-10T15:51:27.514Z,12.35
2023-04-10T15:53:57.369Z,12.12
2023-04-10T15:56:24.084Z,11.97
2023-04-10T15:58:50.825Z,11.76
2023-04-10T16:01:17.434Z,11.60
2023-04-10T16:03:45.362Z,11.44
2023-04-10T16:06:12.172Z,11.07
2023-04-10T16:08:38.805Z,10.81
2023-04-10T16:11:05.848Z,10.61
2023-04-10T16:13:32.610Z,10.49
2023-04-10T16:15:59.441Z,10.33
2023-04-10T16:18:26.161Z,10.32
2023-04-10T16:20:53.013Z,10.42
2023-04-10T16:23:19.722Z,10.98
2023-04-10T16:25:46.432Z,11.39
2023-04-10T16:28:13.289Z,11.63
2023-04-10T16:30:40.135Z,11.58
2023-04-10T16:33:06.870Z,11.30
2023-04-10T16:35:33.730Z,10.92
2023-04-10T16:38:00.352Z,10.63
2023-04-10T16:40:32.930Z,10.38
2023-04-10T16:43:02.921Z,10.20
2023-04-10T16:45:29.991Z,10.08
2023-04-10T16:47:56.727Z,10.01
2023-04-10T16:50:23.609Z,9.88
2023-04-10T16:52:50.558Z,9.70
2023-04-10T16:55:17.497Z,9.58
2023-04-10T16:57:44.352Z,9.54
2023-04-10T17:00:11.688Z,9.64
2023-04-10T17:02:40.048Z,9.78
2023-04-10T17:05:07.101Z,10.04
2023-04-10T17:07:34.746Z,10.20
2023-04-10T17:10:01.913Z,10.25
2023-04-10T17:12:29.161Z,10.22
2023-04-10T17:14:58.870Z,10.18
2023-04-10T17:17:26.267Z,10.10
2023-04-10T17:19:55.060Z,10.14
2023-04-10T17:22:23.765Z,10.42
2023-04-10T17:24:51.367Z,10.66
2023-04-10T17:27:18.312Z,10.79
2023-04-10T17:29:45.252Z,10.77
2023-04-10T17:32:12.919Z,10.51
2023-04-10T17:34:40.013Z,10.28
2023-04-10T17:37:07.295Z,9.99
2023-04-10T17:39:35.579Z,9.83
2023-04-10T17:42:02.519Z,10.01
2023-04-10T17:44:33.030Z,10.26
2023-04-10T17:47:01.973Z,10.46
2023-04-10T17:49:28.965Z,10.60
2023-04-10T17:51:56.124Z,10.64
2023-04-10T17:54:23.221Z,10.54
2023-04-10T17:56:52.865Z,10.50
2023-04-10T17:59:19.790Z,10.26
2023-04-10T18:01:46.872Z,9.96
2023-04-10T18:04:14.920Z,9.75
2023-04-10T18:06:41.780Z,9.50
2023-04-10T18:09:08.800Z,9.35
2023-04-10T18:11:35.800Z,9.19
2023-04-10T18:14:02.939Z,9.12
2023-04-10T18:16:32.179Z,9.06
2023-04-10T18:18:59.051Z,9.00
2023-04-10T18:21:27.404Z,8.91
2023-04-10T18:23:55.779Z,8.88
2023-04-10T18:26:22.858Z,8.89
2023-04-10T18:28:50.450Z,8.94
2023-04-10T18:31:19.215Z,8.92
2023-04-10T18:33:56.224Z,8.88
2023-04-10T18:36:31.703Z,8.88
2023-04-10T18:38:58.563Z,8.86
2023-04-10T18:41:25.539Z,8.83
2023-04-10T18:44:01.789Z,8.82
2023-04-10T18:46:32.837Z,8.73
2023-04-10T18:49:01.972Z,8.66
2023-04-10T18:51:29.017Z,8.60
2023-04-10T18:53:56.257Z,8.56
2023-04-10T18:56:23.363Z,8.58
2023-04-10T18:58:51.946Z,8.61
2023-04-10T19:01:19.266Z,8.56
2023-04-10T19:03:49.144Z,8.54
2023-04-10T19:06:23.924Z,8.52
2023-04-10T19:08:51.298Z,8.50
2023-04-10T19:11:19.042Z,8.41
2023-04-10T19:13:46.546Z,8.34
2023-04-10T19:16:14.761Z,8.25
2023-04-10T19:18:42.884Z,8.18
2023-04-10T19:21:09.806Z,8.07
2023-04-10T19:23:37.881Z,8.03
2023-04-10T19:26:04.956Z,7.97
2023-04-10T19:28:33.410Z,7.95
2023-04-10T19:31:02.213Z,7.91
2023-04-10T19:33:30.566Z,7.90
2023-04-10T19:36:02.440Z,7.86
2023-04-10T19:38:29.796Z,7.83
2023-04-10T19:40:57.105Z,7.81
2023-04-10T19:43:27.095Z,7.82
2023-04-10T19:45:54.857Z,7.90
2023-04-10T19:48:24.797Z,7.90
2023-04-10T19:50:51.664Z,7.90
2023-04-10T19:53:18.639Z,7.86
2023-04-10T19:55:45.630Z,7.81
2023-04-10T19:58:30.031Z,7.80
2023-04-10T20:01:05.026Z,7.74
2023-04-10T20:03:34.452Z,7.71
2023-04-10T20:06:04.755Z,7.69
2023-04-10T20:08:32.652Z,7.68
2023-04-10T20:11:00.010Z,7.66
2023-04-10T20:13:26.897Z,7.61
2023-04-10T20:15:53.922Z,7.58
2023-04-10T20:18:23.598Z,7.54
2023-04-10T20:20:50.675Z,7.48
2023-04-10T20:23:18.670Z,7.44
2023-04-10T20:25:45.878Z,7.39
2023-04-10T20:28:12.723Z,7.34
2023-04-10T20:30:39.663Z,7.29
2023-04-10T20:33:07.159Z,7.22
2023-04-10T20:35:34.141Z,7.16
2023-04-10T20:38:01.305Z,7.15
2023-04-10T20:40:30.570Z,7.12
2023-04-10T20:42:57.690Z,7.05
2023-04-10T20:45:24.641Z,7.02
2023-04-10T20:47:51.510Z,6.99
2023-04-10T20:50:19.436Z,6.96
2023-04-10T20:52:46.322Z,6.95
2023-04-10T20:55:13.507Z,6.95
2023-04-10T20:57:41.925Z,6.98
2023-04-10T21:00:09.944Z,6.96
2023-04-10T21:02:37.011Z,6.90
2023-04-10T21:05:04.318Z,6.85
2023-04-10T21:07:32.756Z,6.88
2023-04-10T21:09:59.849Z,6.83
2023-04-10T21:12:28.108Z,6.80
2023-04-10T21:14:54.961Z,6.69
2023-04-10T21:17:22.995Z,6.63
2023-04-10T21:19:51.960Z,6.57
2023-04-10T21:22:19.741Z,6.53
2023-04-10T21:24:48.272Z,6.52
2023-04-10T21:27:15.093Z,6.49
2023-04-10T21:29:42.629Z,6.45
2023-04-10T21:32:09.654Z,6.41
2023-04-10T21:34:36.836Z,6.38
2023-04-10T21:37:04.945Z,6.36
2023-04-10T21:39:32.874Z,6.34
2023-04-10T21:41:59.706Z,6.36
2023-04-10T21:44:27.034Z,6.32
2023-04-10T21:46:54.012Z,6.30
2023-04-10T21:49:21.392Z,6.28
2023-04-10T21:51:48.359Z,6.24
2023-04-10T21:54:15.917Z,6.22
2023-04-10T21:56:43.435Z,6.21
2023-04-10T21:59:11.099Z,6.21
2023-04-10T22:01:38.178Z,6.17
2023-04-10T22:04:05.311Z,6.14
2023-04-10T22:06:32.322Z,6.12
2023-04-10T22:09:00.743Z,6.08
2023-04-10T22:11:28.741Z,6.06
2023-04-10T22:13:56.394Z,6.04
2023-04-10T22:16:25.761Z,6.03
2023-04-10T22:18:54.732Z,6.01
2023-04-10T22:21:23.060Z,5.99
2023-04-10T22:23:49.992Z,5.97
2023-04-10T22:26:16.955Z,5.94
2023-04-10T22:28:44.004Z,5.92
2023-04-10T22:31:18.656Z,5.88
2023-04-10T22:33:46.132Z,5.88
2023-04-10T22:36:13.261Z,5.90
2023-04-10T22:38:40.142Z,5.87
2023-04-10T22:41:08.212Z,5.85
2023-04-10T22:43:35.473Z,5.81
2023-04-10T22:46:02.423Z,5.79
2023-04-10T22:48:29.333Z,5.78
2023-04-10T22:50:56.253Z,5.76
2023-04-10T22:53:23.357Z,5.79
2023-04-10T22:55:50.471Z,5.76
2023-04-10T22:58:18.170Z,5.77
2023-04-10T23:00:45.234Z,5.78
2023-04-10T23:03:15.207Z,5.77
2023-04-10T23:05:42.407Z,5.76
2023-04-10T23:08:11.433Z,5.76
2023-04-10T23:10:39.679Z,5.75
2023-04-10T23:13:06.598Z,5.72
2023-04-10T23:15:33.677Z,5.72
2023-04-10T23:18:00.661Z,5.70
2023-04-10T23:20:27.702Z,5.69
2023-04-10T23:22:58.752Z,5.66
2023-04-10T23:25:28.611Z,5.66
2023-04-10T23:27:55.666Z,5.68
2023-04-10T23:30:23.636Z,5.67
2023-04-10T23:32:50.602Z,5.68
2023-04-10T23:35:17.850Z,5.69
2023-04-10T23:37:44.896Z,5.69
2023-04-10T23:40:12.299Z,5.69
2023-04-10T23:42:39.307Z,5.68
2023-04-10T23:45:07.159Z,5.68
2023-04-10T23:47:34.133Z,5.67
2023-04-10T23:50:01.660Z,5.67
2023-04-10T23:52:28.993Z,5.66
2023-04-10T23:54:56.462Z,5.66
2023-04-10T23:57:26.882Z,5.66
2023-04-10T23:59:53.800Z,5.65
